Time;durP1;ratioP1;P1;durP2;ratioP2;P2;SDS_P1;SDS_P2;PMS_P1;PMS_P2;Temp;Humidity;BMP_temperature;BMP_pressure;BME280_temperature;BME280_humidity;BME280_pressure;Samples;Min_cycle;Max_cycle;Signal;HPM_P1;HPM_P2
2023/07/15 00:04:31;;;;;;;3.88;1.95;;;;;;;20.84;39.84;97506.06;10482586;28;20087;-74
2023/07/15 00:09:52;;;;;;;4.90;2.40;;;;;;;20.73;40.16;97512.88;10482288;28;20124;-75
2023/07/15 00:15:13;;;;;;;3.80;2.00;;;;;;;20.69;40.40;97512.06;10482088;28;20140;-75
2023/07/15 00:20:35;;;;;;;4.15;2.33;;;;;;;20.62;40.85;97504.78;10454284;28;20435;-75
2023/07/15 00:25:56;;;;;;;2.83;1.70;;;;;;;20.58;41.39;97502.59;10474647;28;20122;-75
2023/07/15 00:31:17;;;;;;;3.50;1.33;;;;;;;20.55;41.57;97498.25;10476103;28;20435;-75
2023/07/15 00:36:38;;;;;;;3.30;1.38;;;;;;;20.50;42.01;97491.03;10476219;28;20049;-74
2023/07/15 00:42:10;;;;;;;3.15;1.35;;;;;;;20.47;42.24;97481.06;10462046;28;20071;-74
2023/07/15 00:47:47;;;;;;;2.70;1.58;;;;;;;20.43;42.40;97484.50;10462144;28;20064;-75
2023/07/15 00:53:10;;;;;;;4.22;1.10;;;;;;;20.41;42.70;97490.09;10476805;28;20116;-74
2023/07/15 00:58:31;;;;;;;4.13;1.42;;;;;;;20.37;42.66;97483.63;10461188;28;20075;-75
2023/07/15 01:03:54;;;;;;;4.20;1.27;;;;;;;20.30;42.98;97480.63;10475203;28;20471;-75
2023/07/15 01:09:16;;;;;;;2.28;1.20;;;;;;;20.30;43.44;97485.56;10489108;28;20481;-75
2023/07/15 01:14:37;;;;;;;3.25;1.55;;;;;;;20.27;43.62;97487.63;10474379;28;20044;-74
2023/07/15 01:19:58;;;;;;;3.45;1.92;;;;;;;20.27;43.81;97479.13;10488051;28;20166;-75
2023/07/15 01:25:19;;;;;;;4.35;1.70;;;;;;;20.28;43.44;97474.91;10474022;28;20123;-74
2023/07/15 01:30:39;;;;;;;2.85;1.50;;;;;;;20.37;43.97;97469.44;10473969;28;20120;-74
2023/07/15 01:36:00;;;;;;;4.00;1.13;;;;;;;20.40;43.82;97471.66;10459548;28;20041;-74
2023/07/15 01:41:21;;;;;;;3.53;1.35;;;;;;;20.35;44.17;97463.69;10487286;28;20124;-75
2023/07/15 01:46:41;;;;;;;1.83;1.15;;;;;;;20.32;44.25;97474.28;10487068;28;20158;-75
2023/07/15 01:52:02;;;;;;;2.53;1.10;;;;;;;20.28;44.22;97477.75;10472890;28;20044;-74
2023/07/15 01:57:25;;;;;;;2.45;0.98;;;;;;;20.27;44.27;97484.06;10472758;28;20124;-74
2023/07/15 02:02:46;;;;;;;3.90;1.17;;;;;;;20.27;44.00;97484.06;10458477;28;20068;-75
2023/07/15 02:08:10;;;;;;;1.63;1.00;;;;;;;20.25;44.14;97484.72;10473144;28;20045;-75
2023/07/15 02:13:30;;;;;;;3.72;1.10;;;;;;;20.25;43.86;97479.06;10458056;28;20036;-75
2023/07/15 02:18:51;;;;;;;2.13;0.93;;;;;;;20.21;44.19;97476.13;10485985;28;20075;-75
2023/07/15 02:24:11;;;;;;;5.80;1.25;;;;;;;20.17;44.20;97473.22;10485623;28;20120;-75
2023/07/15 02:29:33;;;;;;;2.17;1.17;;;;;;;20.17;44.18;97470.38;10457743;28;20107;-74
2023/07/15 02:34:54;;;;;;;3.35;1.10;;;;;;;20.13;44.30;97467.41;10471369;28;20538;-75
2023/07/15 02:40:15;;;;;;;2.67;1.00;;;;;;;20.09;44.33;97478.66;10457417;28;20067;-75
2023/07/15 02:45:35;;;;;;;2.28;1.23;;;;;;;19.99;44.51;97481.94;10484161;28;20036;-75
2023/07/15 02:50:58;;;;;;;4.95;1.20;;;;;;;19.91;44.56;97478.91;10470876;28;20379;-75
2023/07/15 02:56:19;;;;;;;2.90;1.00;;;;;;;19.78;45.02;97494.09;10484641;28;20076;-74
2023/07/15 03:01:39;;;;;;;3.28;1.10;;;;;;;19.67;45.10;97495.94;10456534;28;20546;-75
2023/07/15 03:07:00;;;;;;;2.05;1.20;;;;;;;19.61;45.77;97490.13;10455821;28;20132;-75
2023/07/15 03:12:21;;;;;;;4.93;1.10;;;;;;;19.53;45.76;97504.00;10456075;28;20064;-75
2023/07/15 03:17:42;;;;;;;5.63;1.15;;;;;;;19.48;45.93;97499.59;10456007;28;20115;-75
2023/07/15 03:23:03;;;;;;;2.15;1.10;;;;;;;19.41;46.15;97503.66;10455554;28;20417;-75
2023/07/15 03:28:24;;;;;;;4.63;1.10;;;;;;;19.36;46.61;97510.59;10469530;28;20120;-75
2023/07/15 03:33:45;;;;;;;1.77;1.10;;;;;;;19.36;46.19;97514.13;10469208;28;20116;-74
2023/07/15 03:39:06;;;;;;;2.45;1.02;;;;;;;19.44;46.62;97505.88;10497865;28;20127;-75
2023/07/15 03:44:26;;;;;;;2.22;0.85;;;;;;;19.54;46.51;97513.22;10483096;28;20526;-75
2023/07/15 03:49:47;;;;;;;2.33;1.00;;;;;;;19.51;46.65;97523.06;10468856;28;20068;-75
2023/07/15 03:55:08;;;;;;;6.05;1.42;;;;;;;19.55;47.09;97521.06;10468651;28;20072;-74
2023/07/15 04:00:28;;;;;;;2.13;1.15;;;;;;;19.66;46.90;97525.63;10468257;28;20068;-75
2023/07/15 04:05:49;;;;;;;4.28;1.38;;;;;;;19.78;46.86;97524.53;10497327;28;20159;-74
2023/07/15 04:11:10;;;;;;;1.65;1.08;;;;;;;19.96;46.53;97530.69;10468533;28;20048;-75
2023/07/15 04:16:30;;;;;;;1.42;0.90;;;;;;;20.15;46.25;97529.81;10454422;28;20137;-75
2023/07/15 04:21:51;;;;;;;2.90;1.20;;;;;;;20.29;46.27;97523.81;10468334;28;20064;-75
2023/07/15 04:27:11;;;;;;;3.03;1.60;;;;;;;20.43;46.20;97527.00;10467870;28;20065;-75
2023/07/15 04:32:32;;;;;;;2.55;1.20;;;;;;;20.61;45.78;97523.91;10467854;28;20060;-75
2023/07/15 04:37:53;;;;;;;3.30;1.15;;;;;;;20.62;45.52;97524.63;10481547;28;20061;-75
2023/07/15 04:43:13;;;;;;;2.58;1.30;;;;;;;20.75;44.90;97524.28;10467828;28;20120;-74
2023/07/15 04:48:34;;;;;;;3.60;1.52;;;;;;;20.77;44.76;97527.16;10467582;28;20064;-74
2023/07/15 04:53:56;;;;;;;4.90;1.40;;;;;;;21.03;45.04;97532.00;10453531;28;20095;-75
2023/07/15 04:59:17;;;;;;;3.78;1.30;;;;;;;21.39;44.41;97532.84;10495514;28;20060;-75
2023/07/15 05:04:38;;;;;;;2.63;1.10;;;;;;;21.71;44.01;97534.91;10453701;28;20407;-74
2023/07/15 05:10:01;;;;;;;2.72;1.40;;;;;;;22.02;43.31;97541.22;10484090;28;20060;-75
2023/07/15 05:15:23;;;;;;;3.92;1.20;;;;;;;22.15;42.48;97542.91;10474582;28;20044;-75
2023/07/15 05:20:44;;;;;;;4.93;1.75;;;;;;;22.35;42.33;97546.13;10460589;28;20395;-74
2023/07/15 05:26:05;;;;;;;4.45;1.38;;;;;;;22.74;41.47;97547.50;10474000;28;20075;-75
2023/07/15 05:31:26;;;;;;;4.65;1.40;;;;;;;22.95;41.31;97545.00;10487578;28;20060;-74
2023/07/15 05:36:47;;;;;;;4.75;1.52;;;;;;;23.25;40.83;97547.59;10459944;28;20068;-74
2023/07/15 05:42:08;;;;;;;2.33;1.58;;;;;;;23.70;40.66;97551.81;10459709;28;20044;-75
2023/07/15 05:47:28;;;;;;;3.22;1.73;;;;;;;24.05;39.41;97558.66;10502101;28;20052;-75
2023/07/15 05:52:49;;;;;;;5.53;1.55;;;;;;;24.37;39.36;97549.03;10486939;28;20437;-75
2023/07/15 05:58:11;;;;;;;3.35;1.60;;;;;;;24.78;38.90;97552.97;10459407;28;20057;-75
2023/07/15 06:03:32;;;;;;;4.03;1.60;;;;;;;25.06;37.80;97556.06;10458656;28;20379;-75
2023/07/15 06:08:53;;;;;;;5.97;1.17;;;;;;;25.56;37.43;97549.25;10472621;28;20098;-75
2023/07/15 06:14:14;;;;;;;2.33;1.58;;;;;;;25.55;36.45;97561.38;10472356;28;20108;-74
2023/07/15 06:19:34;;;;;;;3.10;1.30;;;;;;;25.61;35.79;97555.72;10485151;28;20075;-75
2023/07/15 06:24:55;;;;;;;3.85;1.60;;;;;;;26.01;35.34;97580.22;10485549;28;20097;-75
2023/07/15 06:30:16;;;;;;;2.65;1.48;;;;;;;26.50;34.91;97573.22;10471275;28;20597;-75
2023/07/15 06:35:36;;;;;;;4.10;1.40;;;;;;;27.06;33.64;97571.88;10485372;28;20041;-75
2023/07/15 06:40:57;;;;;;;4.78;1.73;;;;;;;27.24;33.06;97579.72;10485043;28;20551;-75
2023/07/15 06:46:18;;;;;;;3.88;1.35;;;;;;;27.27;32.63;97568.97;10470501;28;20067;-76
2023/07/15 06:51:39;;;;;;;3.67;1.40;;;;;;;27.63;32.84;97563.19;10470903;28;20504;-77
2023/07/15 06:57:00;;;;;;;3.72;1.67;;;;;;;28.03;31.80;97572.38;10456492;28;20044;-77
2023/07/15 07:02:21;;;;;;;2.15;1.10;;;;;;;27.98;31.45;97568.81;10470305;28;20041;-77
2023/07/15 07:07:43;;;;;;;3.70;1.23;;;;;;;28.14;30.81;97574.47;10469711;28;20060;-76
2023/07/15 07:13:04;;;;;;;6.18;1.30;;;;;;;28.66;30.62;97574.91;10498770;28;20098;-77
2023/07/15 07:18:26;;;;;;;2.67;1.52;;;;;;;28.86;30.13;97569.03;10498729;28;20052;-77
2023/07/15 07:23:52;;;;;;;3.38;1.05;;;;;;;29.00;29.54;97571.09;10469932;28;20043;-76
2023/07/15 07:29:13;;;;;;;2.47;1.15;;;;;;;28.85;29.05;97561.13;10470731;28;20040;-77
2023/07/15 07:34:34;;;;;;;2.53;1.40;;;;;;;29.18;28.80;97565.19;10441731;28;20058;-77
2023/07/15 07:39:55;;;;;;;7.37;0.97;;;;;;;29.79;28.25;97555.25;10441697;28;20071;-77
2023/07/15 07:45:16;;;;;;;6.45;1.15;;;;;;;30.41;26.92;97550.88;10469107;28;20048;-77
2023/07/15 07:50:37;;;;;;;2.60;0.80;;;;;;;30.71;26.49;97551.91;10454898;28;20040;-77
2023/07/15 07:55:58;;;;;;;3.75;1.25;;;;;;;30.58;26.42;97557.09;10468620;28;20048;-77
2023/07/15 08:01:19;;;;;;;3.43;1.33;;;;;;;30.77;26.47;97548.91;10468677;28;20394;-76
2023/07/15 08:06:40;;;;;;;4.45;1.15;;;;;;;30.84;26.09;97546.66;10482084;28;20098;-76
2023/07/15 08:12:01;;;;;;;1.98;1.00;;;;;;;31.72;25.09;97542.91;10481918;28;20044;-77
2023/07/15 08:17:21;;;;;;;3.15;1.10;;;;;;;31.89;25.30;97526.72;10468184;28;20051;-77
2023/07/15 08:22:43;;;;;;;2.60;1.00;;;;;;;32.16;24.25;97530.47;10482017;28;20045;-77
2023/07/15 08:28:04;;;;;;;4.13;1.05;;;;;;;32.34;24.21;97529.41;10481758;28;20036;-76
2023/07/15 08:33:25;;;;;;;3.63;1.00;;;;;;;32.38;23.85;97531.47;10467706;28;20049;-76
2023/07/15 08:38:47;;;;;;;1.98;0.75;;;;;;;32.40;23.66;97528.53;10467897;28;20059;-76
2023/07/15 08:44:08;;;;;;;1.77;0.65;;;;;;;32.22;23.87;97526.75;10453243;28;20040;-76
2023/07/15 08:49:29;;;;;;;4.63;1.08;;;;;;;32.49;23.66;97535.53;10489341;28;20115;-76
2023/07/15 08:54:51;;;;;;;1.77;0.75;;;;;;;32.47;24.29;97529.81;10475499;28;20045;-76
2023/07/15 09:00:15;;;;;;;3.92;0.80;;;;;;;32.35;24.13;97521.44;10461994;28;20053;-76
2023/07/15 09:05:37;;;;;;;4.10;0.93;;;;;;;32.80;23.82;97503.03;10475434;28;20452;-76
2023/07/15 09:10:58;;;;;;;1.90;1.00;;;;;;;32.78;23.40;97505.97;10475130;28;20056;-76
2023/07/15 09:16:19;;;;;;;3.00;0.75;;;;;;;33.01;23.62;97510.47;10460593;28;20048;-75
2023/07/15 09:21:49;;;;;;;;;;;;;;;33.95;23.15;97499.25;10474486;28;20040;-75
2023/07/15 09:27:10;;;;;;;2.38;0.80;;;;;;;34.66;21.97;97491.28;10487594;28;19926;-75
2023/07/15 09:32:31;;;;;;;1.48;0.77;;;;;;;34.85;21.12;97500.06;10473650;28;20489;-76
2023/07/15 09:37:53;;;;;;;2.42;0.98;;;;;;;35.11;20.37;97497.78;10487513;28;20048;-76
2023/07/15 09:43:15;;;;;;;1.77;1.08;;;;;;;35.03;20.76;97495.16;10487149;28;20105;-76
2023/07/15 09:48:36;;;;;;;2.55;0.60;;;;;;;35.21;20.56;97491.63;10502034;28;20044;-76
2023/07/15 09:53:57;;;;;;;1.65;0.95;;;;;;;35.36;20.27;97488.94;10458828;28;20040;-75
2023/07/15 09:59:20;;;;;;;3.25;0.98;;;;;;;35.67;19.43;97474.06;10472722;28;20055;-75
2023/07/15 10:04:44;;;;;;;1.80;0.85;;;;;;;36.00;19.33;97480.09;10472674;28;20059;-76
2023/07/15 10:10:06;;;;;;;3.03;0.90;;;;;;;36.22;19.48;97474.88;10458420;28;20044;-76
2023/07/15 10:15:27;;;;;;;2.53;0.75;;;;;;;36.02;18.74;97471.28;10472253;28;20040;-75
2023/07/15 10:20:54;;;;;;;;;;;;;;;35.23;19.58;97471.25;10458295;28;20411;-75
2023/07/15 10:26:21;;;;;;;2.65;1.00;;;;;;;35.06;19.96;97458.81;10471305;28;19951;-75
2023/07/15 10:31:42;;;;;;;1.50;0.68;;;;;;;36.22;19.31;97463.28;10457608;28;20072;-75
2023/07/15 10:37:08;;;;;;;5.28;0.75;;;;;;;35.89;18.76;97458.72;10471358;28;20111;-76
2023/07/15 10:42:29;;;;;;;1.90;0.80;;;;;;;35.64;19.68;97458.19;10471098;28;20071;-76
2023/07/15 10:47:50;;;;;;;;;;;;;;;35.67;19.15;97451.53;10457238;28;20060;-75
2023/07/15 10:53:26;;;;;;;1.73;0.80;;;;;;;34.88;20.08;97452.16;10470687;28;19920;-76
2023/07/15 10:58:47;;;;;;;2.90;1.02;;;;;;;34.96;19.86;97443.19;10483879;28;20048;-76
2023/07/15 11:04:07;;;;;;;1.10;0.80;;;;;;;34.86;19.89;97437.72;10469898;28;20052;-75
2023/07/15 11:09:29;;;;;;;2.22;0.93;;;;;;;34.69;20.52;97437.56;10441887;28;20060;-75
2023/07/15 11:14:49;;;;;;;;;;;;;;;35.44;20.04;97413.25;10456140;28;20045;-76
2023/07/15 11:20:13;;;;;;;4.00;0.77;;;;;;;35.81;19.18;97418.38;10483447;28;20337;-75
2023/07/15 11:25:34;;;;;;;1.08;0.70;;;;;;;35.76;19.78;97408.38;10455384;28;20037;-75
2023/07/15 11:30:55;;;;;;;2.03;1.08;;;;;;;36.09;19.68;97399.13;10469387;28;20068;-76
2023/07/15 11:36:16;;;;;;;2.97;0.98;;;;;;;36.12;18.87;97380.84;10498267;28;20074;-75
2023/07/15 11:41:37;;;;;;;1.52;0.70;;;;;;;35.76;19.55;97382.97;10482870;28;20494;-75
2023/07/15 11:46:57;;;;;;;;;;;;;;;36.24;19.10;97382.53;10441500;28;20189;-76
2023/07/15 11:52:20;;;;;;;1.50;0.73;;;;;;;36.58;18.25;97376.81;10483130;28;19920;-76
2023/07/15 11:57:42;;;;;;;2.45;0.70;;;;;;;36.55;18.43;97367.47;10468654;28;20091;-75
2023/07/15 12:03:09;;;;;;;1.35;0.70;;;;;;;36.71;18.17;97362.47;10454565;28;20523;-75
2023/07/15 12:08:30;;;;;;;1.40;0.63;;;;;;;37.04;18.19;97359.56;10469152;28;20490;-75
2023/07/15 12:13:51;;;;;;;;;;;;;;;36.15;18.61;97355.31;10468854;28;20067;-76
2023/07/15 12:19:13;;;;;;;2.47;0.70;;;;;;;36.55;18.37;97338.41;10485731;28;19927;-75
2023/07/15 12:24:33;;;;;;;1.70;0.70;;;;;;;36.64;18.18;97333.66;10476521;28;20056;-76
2023/07/15 12:29:54;;;;;;;;;;;;;;;37.34;18.33;97324.78;10476596;28;20060;-76
2023/07/15 12:35:23;;;;;;;1.45;0.57;;;;;;;37.78;17.97;97324.91;10477205;28;20434;-75
2023/07/15 12:40:44;;;;;;;;;;;;;;;37.56;17.27;97315.03;10490190;28;20486;-75
2023/07/15 12:46:05;;;;;;;2.88;0.68;;;;;;;37.51;17.34;97316.72;10475923;28;19920;-76
2023/07/15 12:51:26;;;;;;;2.22;0.60;;;;;;;37.56;17.39;97306.28;10489419;28;20067;-76
2023/07/15 12:56:46;;;;;;;1.63;0.50;;;;;;;37.70;17.39;97296.16;10475145;28;20513;-75
2023/07/15 13:02:07;;;;;;;;;;;;;;;37.94;16.76;97305.97;10461479;28;20384;-75
2023/07/15 13:07:28;;;;;;;1.40;0.55;;;;;;;36.93;17.08;97286.59;10474457;28;19963;-75
2023/07/15 13:12:48;;;;;;;;;;;;;;;36.77;17.28;97280.78;10475006;28;20072;-76
2023/07/15 13:18:09;;;;;;;4.40;0.70;;;;;;;36.84;17.96;97279.03;10474359;28;19924;-75
2023/07/15 13:23:30;;;;;;;;;;;;;;;37.07;17.31;97272.94;10488699;28;20048;-76
2023/07/15 13:28:50;;;;;;;2.28;1.00;;;;;;;37.23;16.91;97264.13;10487568;28;19952;-75
2023/07/15 13:34:11;;;;;;;;;;;;;;;36.62;17.66;97261.06;10474532;28;20060;-75
2023/07/15 13:39:42;;;;;;;1.80;1.40;;;;;;;36.04;17.81;97250.47;10502482;28;20007;-75
2023/07/15 13:45:02;;;;;;;3.33;1.33;;;;;;;35.91;18.25;97263.41;10460201;28;20044;-75
2023/07/15 13:50:23;;;;;;;;;;;;;;;35.77;18.31;97253.03;10459741;28;20064;-76
2023/07/15 13:55:44;;;;;;;2.45;1.30;;;;;;;35.73;18.17;97262.63;10473245;28;19921;-76
2023/07/15 14:01:05;;;;;;;1.65;1.00;;;;;;;35.67;18.34;97236.75;10459025;28;20082;-76
2023/07/15 14:06:25;;;;;;;1.27;0.80;;;;;;;35.50;18.02;97239.59;10486367;28;20063;-75
2023/07/15 14:11:46;;;;;;;1.63;1.08;;;;;;;35.35;18.65;97221.34;10486182;28;20064;-76
2023/07/15 14:17:07;;;;;;;1.05;0.70;;;;;;;35.44;18.81;97216.66;10458393;28;20550;-76
2023/07/15 14:22:28;;;;;;;1.27;0.73;;;;;;;35.42;18.62;97208.03;10485952;28;20072;-76
2023/07/15 14:28:07;;;;;;;2.45;0.57;;;;;;;35.73;18.72;97192.25;10465027;28;20102;-76
2023/07/15 14:33:27;;;;;;;1.02;0.55;;;;;;;35.85;18.08;97209.88;10443877;28;20186;-75
2023/07/15 14:38:48;;;;;;;0.90;0.50;;;;;;;35.62;18.43;97211.59;10457466;28;20064;-75
2023/07/15 14:44:09;;;;;;;0.90;0.45;;;;;;;35.49;18.38;97191.75;10483925;28;20117;-75
2023/07/15 14:49:33;;;;;;;2.35;0.60;;;;;;;35.33;17.48;97186.59;10485159;28;20099;-75
2023/07/15 14:54:54;;;;;;;3.83;0.80;;;;;;;35.26;17.95;97185.44;10499364;28;20061;-76
2023/07/15 15:00:14;;;;;;;2.40;0.50;;;;;;;35.49;17.97;97170.75;10484255;28;20068;-75
2023/07/15 15:05:35;;;;;;;0.98;0.70;;;;;;;35.75;17.86;97160.25;10483967;28;20055;-76
2023/07/15 15:10:58;;;;;;;2.25;0.50;;;;;;;35.86;18.20;97169.94;10442027;28;20470;-75
2023/07/15 15:16:19;;;;;;;0.68;0.40;;;;;;;35.73;18.40;97154.53;10470345;28;20072;-76
2023/07/15 15:21:39;;;;;;;1.20;0.50;;;;;;;35.45;18.17;97156.41;10469269;28;20040;-75
2023/07/15 15:27:01;;;;;;;2.28;0.50;;;;;;;35.27;18.46;97138.25;10498260;28;20540;-76
2023/07/15 15:32:22;;;;;;;1.00;0.50;;;;;;;35.23;18.29;97149.31;10483375;28;20490;-76
2023/07/15 15:37:43;;;;;;;1.35;0.50;;;;;;;35.17;18.29;97135.03;10469261;28;20064;-76
2023/07/15 15:43:04;;;;;;;1.48;0.50;;;;;;;35.10;18.20;97130.97;10468837;28;20044;-76
2023/07/15 15:48:25;;;;;;;1.65;0.50;;;;;;;35.06;18.22;97116.66;10497409;28;20052;-76
2023/07/15 15:53:53;;;;;;;;;;;;;;;35.07;18.18;97112.25;10482684;28;20064;-75
2023/07/15 15:59:13;;;;;;;1.00;0.60;;;;;;;35.07;18.44;97106.47;10482512;28;20451;-76
2023/07/15 16:04:34;;;;;;;1.00;0.50;;;;;;;35.09;18.15;97103.47;10454959;28;20491;-76
2023/07/15 16:09:55;;;;;;;1.10;0.70;;;;;;;35.08;18.47;97099.88;10454779;28;20117;-76
2023/07/15 16:15:15;;;;;;;2.47;0.73;;;;;;;35.04;18.92;97093.53;10468166;28;20108;-75
2023/07/15 16:20:36;;;;;;;1.02;0.57;;;;;;;34.88;18.91;97109.34;10454502;28;20068;-76
2023/07/15 16:25:57;;;;;;;1.42;0.60;;;;;;;34.82;19.14;97098.69;10467870;28;20044;-75
2023/07/15 16:31:18;;;;;;;1.63;0.70;;;;;;;34.80;18.97;97110.38;10440454;28;20483;-75
2023/07/15 16:36:39;;;;;;;1.00;0.50;;;;;;;34.72;18.93;97099.78;10482006;28;20120;-75
2023/07/15 16:41:59;;;;;;;1.17;0.60;;;;;;;34.73;19.17;97100.50;10467891;28;20069;-75
2023/07/15 16:47:20;;;;;;;1.05;0.50;;;;;;;34.70;18.98;97102.06;10467923;28;20068;-75
2023/07/15 16:52:44;;;;;;;1.45;0.82;;;;;;;34.68;18.78;97097.06;10481575;28;20045;-76
2023/07/15 16:58:05;;;;;;;1.38;0.70;;;;;;;34.67;19.13;97097.84;10467633;28;20056;-75
2023/07/15 17:03:26;;;;;;;1.33;0.65;;;;;;;34.59;19.41;97098.88;10467193;28;20067;-76
2023/07/15 17:08:46;;;;;;;1.42;0.80;;;;;;;34.55;19.22;97092.50;10488332;28;20539;-75
2023/07/15 17:14:07;;;;;;;2.60;1.00;;;;;;;34.48;19.43;97091.34;10475065;28;20046;-76
2023/07/15 17:19:27;;;;;;;1.25;0.80;;;;;;;34.38;19.47;97095.31;10474525;28;20099;-76
2023/07/15 17:24:51;;;;;;;1.52;0.80;;;;;;;34.30;19.31;97098.50;10460338;28;20072;-75
2023/07/15 17:30:12;;;;;;;2.33;1.02;;;;;;;34.25;19.19;97092.16;10474161;28;20079;-75
2023/07/15 17:35:33;;;;;;;;;;;;;;;34.16;19.16;97093.94;10474349;28;20494;-75
2023/07/15 17:40:54;;;;;;;1.60;0.90;;;;;;;34.06;19.31;97089.22;10487553;28;19920;-76
2023/07/15 17:46:14;;;;;;;5.90;1.02;;;;;;;34.04;19.76;97085.72;10460051;28;20068;-75
2023/07/15 17:51:35;;;;;;;1.60;0.93;;;;;;;33.95;19.78;97076.59;10473298;28;20463;-76
2023/07/15 17:56:56;;;;;;;1.63;1.23;;;;;;;33.86;19.83;97072.56;10487127;28;20064;-76
2023/07/15 18:02:16;;;;;;;1.77;1.00;;;;;;;33.72;20.27;97076.69;10487115;28;20041;-76
2023/07/15 18:07:38;;;;;;;1.60;0.98;;;;;;;33.62;20.52;97074.16;10486110;28;20491;-76
2023/07/15 18:12:59;;;;;;;3.80;1.30;;;;;;;33.46;20.82;97060.94;10486446;28;20463;-76
2023/07/15 18:18:19;;;;;;;2.10;0.97;;;;;;;33.36;20.84;97077.94;10472078;28;20076;-75
2023/07/15 18:23:40;;;;;;;3.83;1.57;;;;;;;33.19;23.08;97083.53;10472070;28;20278;-75
2023/07/15 18:29:01;;;;;;;2.80;1.00;;;;;;;32.97;23.71;97087.84;10471676;28;20114;-75
2023/07/15 18:34:21;;;;;;;2.83;1.20;;;;;;;32.77;24.69;97085.59;10471870;28;20749;-76
2023/07/15 18:39:45;;;;;;;1.52;1.17;;;;;;;32.53;25.50;97076.19;10472186;28;20127;-75
2023/07/15 18:45:07;;;;;;;1.75;1.00;;;;;;;32.29;25.81;97091.31;10457585;28;20064;-75
2023/07/15 18:50:28;;;;;;;3.38;1.10;;;;;;;32.05;26.21;97095.63;10471293;28;20045;-76
2023/07/15 18:55:49;;;;;;;1.83;1.10;;;;;;;31.85;26.73;97076.72;10457022;28;20475;-76
2023/07/15 19:01:10;;;;;;;3.07;1.10;;;;;;;31.68;26.42;97084.34;10499496;28;20055;-75
2023/07/15 19:06:31;;;;;;;3.40;1.20;;;;;;;31.47;26.42;97082.00;10470127;28;20124;-76
2023/07/15 19:11:52;;;;;;;2.15;1.25;;;;;;;31.32;26.85;97092.47;10498949;28;20483;-75
2023/07/15 19:17:13;;;;;;;3.35;1.13;;;;;;;31.09;26.65;97097.38;10470445;28;20445;-75
2023/07/15 19:22:34;;;;;;;4.35;1.38;;;;;;;30.88;27.63;97092.06;10456119;28;20048;-76
2023/07/15 19:27:55;;;;;;;4.80;1.10;;;;;;;30.70;27.52;97121.31;10482984;28;20036;-75
2023/07/15 19:33:17;;;;;;;2.17;1.20;;;;;;;30.58;27.59;97110.72;10483281;28;20270;-76
2023/07/15 19:38:38;;;;;;;2.30;1.88;;;;;;;30.44;28.32;97117.50;10469509;28;20045;-76
2023/07/15 19:43:59;;;;;;;2.20;1.27;;;;;;;30.27;28.51;97127.22;10483085;28;20040;-76
2023/07/15 19:49:20;;;;;;;4.60;1.88;;;;;;;30.09;28.93;97134.03;10455188;28;20048;-75
2023/07/15 19:54:41;;;;;;;2.50;1.37;;;;;;;29.96;29.62;97135.72;10468841;28;20064;-75
2023/07/15 20:00:03;;;;;;;3.00;1.42;;;;;;;29.80;29.99;97137.44;10441442;28;20048;-75
2023/07/15 20:05:25;;;;;;;2.45;1.40;;;;;;;29.73;30.16;97126.81;10455443;28;20418;-75
2023/07/15 20:10:46;;;;;;;1.67;1.10;;;;;;;29.56;30.64;97132.13;10468502;28;20040;-76
2023/07/15 20:16:07;;;;;;;3.33;1.23;;;;;;;29.41;30.78;97140.25;10452242;28;20136;-76
2023/07/15 20:21:28;;;;;;;2.70;1.30;;;;;;;29.29;31.17;97128.97;10482217;28;20044;-76
2023/07/15 20:26:49;;;;;;;4.38;1.30;;;;;;;29.20;31.47;97136.28;10468078;28;20041;-76
2023/07/15 20:32:12;;;;;;;3.80;1.20;;;;;;;29.06;31.92;97134.34;10481990;28;20047;-75
2023/07/15 20:37:33;;;;;;;8.88;1.40;;;;;;;28.96;32.15;97134.50;10454422;28;20041;-75
2023/07/15 20:42:53;;;;;;;2.67;1.83;;;;;;;28.88;32.96;97131.72;10460197;28;20049;-76
2023/07/15 20:48:14;;;;;;;3.00;1.35;;;;;;;28.73;32.95;97140.53;10461903;28;20067;-75
2023/07/15 20:53:35;;;;;;;3.90;1.40;;;;;;;28.66;33.64;97141.34;10475690;28;20048;-76
2023/07/15 20:58:56;;;;;;;2.67;1.30;;;;;;;28.56;34.10;97141.50;10489390;28;20693;-76
2023/07/15 21:04:17;;;;;;;3.20;1.60;;;;;;;28.45;34.56;97138.75;10474813;28;20060;-76
2023/07/15 21:09:38;;;;;;;3.92;1.70;;;;;;;28.38;35.15;97151.06;10488648;28;20478;-76
2023/07/15 21:14:59;;;;;;;2.97;1.77;;;;;;;28.26;35.35;97156.91;10474769;28;20044;-76
2023/07/15 21:20:19;;;;;;;5.00;1.70;;;;;;;28.16;35.53;97149.84;10460605;28;20048;-76
2023/07/15 21:25:40;;;;;;;5.20;1.80;;;;;;;28.08;36.52;97137.75;10488088;28;20102;-76
2023/07/15 21:31:01;;;;;;;6.05;1.63;;;;;;;28.01;36.56;97153.63;10474095;28;20544;-76
2023/07/15 21:36:24;;;;;;;3.90;1.80;;;;;;;27.89;36.76;97163.03;10460292;28;20462;-76
2023/07/15 21:41:45;;;;;;;5.53;1.77;;;;;;;27.79;36.83;97168.88;10459916;28;20045;-76
2023/07/15 21:47:06;;;;;;;1.90;1.33;;;;;;;27.67;36.95;97158.25;10487028;28;20040;-76
2023/07/15 21:52:27;;;;;;;2.90;1.58;;;;;;;27.54;37.83;97157.63;10458911;28;20040;-75
2023/07/15 21:57:48;;;;;;;5.03;1.45;;;;;;;27.47;37.85;97167.72;10473140;28;20115;-75
2023/07/15 22:03:09;;;;;;;5.03;1.40;;;;;;;27.46;38.35;97171.31;10445258;28;20052;-75
2023/07/15 22:08:31;;;;;;;4.07;1.43;;;;;;;27.39;38.54;97157.03;10486645;28;20041;-76
2023/07/15 22:13:52;;;;;;;4.07;1.50;;;;;;;27.31;38.77;97156.38;10472407;28;20112;-76
2023/07/15 22:19:14;;;;;;;4.32;1.48;;;;;;;27.28;40.12;97160.69;10486242;28;20040;-76
2023/07/15 22:24:35;;;;;;;3.97;1.92;;;;;;;27.23;40.02;97159.31;10471983;28;20080;-76
2023/07/15 22:29:57;;;;;;;3.97;1.45;;;;;;;27.16;40.48;97189.44;10471929;28;20064;-76
2023/07/15 22:35:19;;;;;;;1.90;1.17;;;;;;;27.09;40.00;97206.66;10485766;28;20047;-76
2023/07/15 22:40:40;;;;;;;3.45;1.20;;;;;;;26.97;40.31;97177.38;10500063;28;20491;-76
2023/07/15 22:46:02;;;;;;;3.00;1.33;;;;;;;26.90;40.84;97193.88;10485119;28;20040;-76
2023/07/15 22:51:24;;;;;;;4.82;1.70;;;;;;;26.85;40.91;97195.34;10457253;28;20043;-75
2023/07/15 22:56:45;;;;;;;2.75;1.60;;;;;;;26.79;40.82;97181.75;10471038;28;20044;-76
2023/07/15 23:02:06;;;;;;;5.80;1.38;;;;;;;26.70;40.80;97191.09;10557615;22;20047;-77
2023/07/15 23:07:27;;;;;;;8.02;1.63;;;;;;;26.60;40.70;97182.56;10511909;28;20044;-73
2023/07/15 23:12:49;;;;;;;4.13;1.38;;;;;;;26.49;40.41;97191.22;10525684;28;20040;-74
2023/07/15 23:18:10;;;;;;;7.82;1.33;;;;;;;26.36;40.24;97184.09;10525252;28;20126;-73
2023/07/15 23:23:31;;;;;;;4.55;1.20;;;;;;;26.24;40.23;97169.81;10497902;28;20393;-73
2023/07/15 23:28:53;;;;;;;4.70;1.50;;;;;;;26.13;40.54;97163.41;10525229;28;20040;-73
2023/07/15 23:34:14;;;;;;;6.18;1.50;;;;;;;26.00;40.52;97152.72;10525229;28;20170;-75
2023/07/15 23:39:35;;;;;;;5.15;1.50;;;;;;;25.89;40.18;97146.34;10511018;28;20048;-75
2023/07/15 23:44:55;;;;;;;8.02;1.42;;;;;;;25.79;40.52;97152.06;10524671;28;20051;-75
2023/07/15 23:50:17;;;;;;;18.75;1.50;;;;;;;25.66;40.56;97148.47;10510822;28;20479;-75
2023/07/15 23:55:38;;;;;;;7.38;1.80;;;;;;;25.53;40.57;97141.34;10496331;28;20064;-74
